createdAt,value
2019-03-27T00:02:25.292Z,55.6
2019-03-27T00:07:25.316Z,55.5
2019-03-27T00:12:25.317Z,55.6
2019-03-27T00:17:25.297Z,55.6
2019-03-27T00:22:25.319Z,54.4
2019-03-27T00:27:25.266Z,54
2019-03-27T00:32:25.286Z,54.3
2019-03-27T00:37:25.254Z,55.2
2019-03-27T00:42:25.273Z,55.3
2019-03-27T00:47:25.267Z,55.4
2019-03-27T00:52:25.241Z,55.4
2019-03-27T00:57:25.289Z,55.5
2019-03-27T01:02:25.229Z,55.4
2019-03-27T01:07:25.220Z,55.4
2019-03-27T01:12:25.224Z,55.4
2019-03-27T01:17:25.201Z,55.5
2019-03-27T01:22:25.239Z,55.9
2019-03-27T01:27:25.218Z,56.3
2019-03-27T01:32:25.222Z,57.2
2019-03-27T01:37:25.185Z,58.5
2019-03-27T01:42:25.221Z,58.9
2019-03-27T01:47:25.181Z,58.5
2019-03-27T01:52:25.158Z,58.4
2019-03-27T01:57:25.251Z,58.4
2019-03-27T02:02:25.170Z,58.3
2019-03-27T02:07:25.197Z,58.5
2019-03-27T02:12:25.158Z,58.5
2019-03-27T02:17:25.212Z,58.5
2019-03-27T02:22:25.159Z,58.6
2019-03-27T02:27:25.121Z,58.6
2019-03-27T02:32:25.172Z,58.8
2019-03-27T02:37:25.156Z,58.9
2019-03-27T02:42:25.154Z,58.9
2019-03-27T02:47:25.222Z,59.1
2019-03-27T02:52:25.155Z,60
2019-03-27T02:57:25.137Z,61.3
2019-03-27T03:02:25.115Z,61.9
2019-03-27T03:07:25.112Z,60.5
2019-03-27T03:12:25.129Z,60.3
2019-03-27T03:17:25.110Z,60.3
2019-03-27T03:22:25.146Z,60.3
2019-03-27T03:27:25.131Z,60.1
2019-03-27T03:32:25.512Z,60
2019-03-27T03:37:25.136Z,60
2019-03-27T03:42:25.076Z,59.9
2019-03-27T03:47:25.081Z,59.9
2019-03-27T03:52:25.108Z,59.8
2019-03-27T03:57:25.036Z,59.8
2019-03-27T04:02:25.076Z,59.6
2019-03-27T04:07:25.065Z,59.9
2019-03-27T04:12:25.035Z,60.3
2019-03-27T04:17:25.053Z,60.2
2019-03-27T04:22:25.035Z,60
2019-03-27T05:36:37.483Z,57.7
2019-03-27T05:41:37.507Z,57.5
2019-03-27T05:46:37.485Z,58.1
2019-03-27T05:51:37.432Z,59
2019-03-27T05:56:37.490Z,59.2
2019-03-27T06:01:37.460Z,59.5
2019-03-27T07:18:40.848Z,56.8
2019-03-27T07:37:03.809Z,57
2019-03-27T07:42:03.858Z,57.1
2019-03-27T07:47:03.808Z,57.2
2019-03-27T07:52:03.825Z,57.4
2019-03-27T07:57:03.743Z,57.6
2019-03-27T08:02:03.722Z,57.8
2019-03-27T08:07:03.751Z,57.7
2019-03-27T08:12:03.777Z,58.4
2019-03-27T08:17:03.739Z,57.8
2019-03-27T08:22:03.753Z,57.7
2019-03-27T08:27:03.723Z,57.7
2019-03-27T08:32:03.716Z,58.3
2019-03-27T08:37:03.720Z,57.8
2019-03-27T08:42:03.723Z,58
2019-03-27T08:47:03.670Z,58.1
2019-03-27T08:52:03.731Z,58.2
2019-03-27T08:57:03.757Z,58.3
2019-03-27T09:02:04.051Z,58.3
2019-03-27T09:07:03.670Z,58.4
2019-03-27T09:12:04.977Z,58.3
2019-03-27T09:17:04.874Z,58.3
2019-03-27T09:22:03.654Z,58.3
2019-03-27T09:27:05.164Z,58.3
2019-03-27T09:32:03.604Z,58.2
2019-03-27T09:37:03.707Z,58.2
2019-03-27T09:42:04.711Z,58.3
2019-03-27T09:47:03.633Z,58.4
2019-03-27T09:52:03.599Z,58.4
2019-03-27T09:57:03.615Z,58.4
2019-03-27T10:02:03.650Z,58.8
2019-03-27T10:07:03.610Z,58.3
2019-03-27T10:12:03.614Z,58.4
2019-03-27T10:17:03.584Z,58.4
2019-03-27T10:22:03.609Z,58.6
2019-03-27T10:27:03.677Z,58.6
2019-03-27T10:32:03.561Z,58.7
2019-03-27T10:37:03.572Z,58.8
2019-03-27T10:42:03.601Z,58.8
2019-03-27T10:47:03.617Z,58.9
2019-03-27T10:52:03.567Z,59.1
2019-03-27T10:57:03.588Z,59.1
2019-03-27T11:02:03.581Z,59.1
2019-03-27T11:07:03.529Z,59.1
2019-03-27T11:12:03.536Z,59.2
2019-03-27T11:17:03.527Z,59.2
2019-03-27T11:22:03.519Z,59.2
2019-03-27T11:27:03.528Z,58.8
2019-03-27T11:32:03.538Z,58.3
2019-03-27T11:37:03.529Z,57.9
2019-03-27T11:42:03.499Z,57.8
2019-03-27T11:47:03.545Z,57.3
2019-03-27T11:52:03.490Z,56.6
2019-03-27T11:57:03.469Z,56
2019-03-27T12:02:03.472Z,55.5
2019-03-27T12:07:03.486Z,55.5
2019-03-27T12:12:03.450Z,55
2019-03-27T12:17:03.479Z,55.3
2019-03-27T12:22:03.461Z,55.8
2019-03-27T12:27:03.460Z,56.4
2019-03-27T12:32:03.436Z,56.9
2019-03-27T12:37:03.432Z,57.3
2019-03-27T12:42:03.472Z,57.6
2019-03-27T12:47:03.435Z,57.9
2019-03-27T12:52:05.798Z,58.2
2019-03-27T12:57:03.426Z,58.6
2019-03-27T13:02:03.489Z,58.8
2019-03-27T13:07:03.438Z,58.8
2019-03-27T13:12:03.390Z,59
2019-03-27T13:17:03.427Z,59.1
2019-03-27T13:22:03.417Z,59.2
2019-03-27T13:27:03.398Z,59.1
2019-03-27T13:32:03.443Z,59
2019-03-27T13:37:03.396Z,59.6
2019-03-27T13:42:03.367Z,59
2019-03-27T13:47:04.323Z,58.9
2019-03-27T13:52:03.385Z,58.6
2019-03-27T13:57:03.393Z,58.4
2019-03-27T14:02:03.372Z,58.4
2019-03-27T14:07:03.376Z,58.4
2019-03-27T14:12:03.350Z,58.5
2019-03-27T14:17:03.334Z,58.3
2019-03-27T14:22:03.395Z,58.1
2019-03-27T14:27:03.351Z,57.7
2019-03-27T14:32:03.396Z,57.4
2019-03-27T14:37:03.391Z,57.3
2019-03-27T14:42:03.336Z,57.2
2019-03-27T14:47:03.277Z,57
2019-03-27T14:57:08.519Z,57.1
2019-03-27T15:02:08.448Z,57.3
2019-03-27T15:07:08.390Z,57.6
2019-03-27T15:12:08.363Z,58.1
2019-03-27T15:17:08.372Z,58.3
2019-03-27T15:22:23.142Z,58.6
2019-03-27T15:27:08.318Z,58.8
2019-03-27T15:32:08.346Z,59
2019-03-27T15:37:08.330Z,59.2
2019-03-27T15:42:09.516Z,59.4
2019-03-27T15:47:08.316Z,59.3
2019-03-27T15:52:08.361Z,59.2
2019-03-27T15:57:08.319Z,59.3
2019-03-27T16:02:08.347Z,59.4
2019-03-27T16:07:08.281Z,59.5
2019-03-27T16:12:08.277Z,59.6
2019-03-27T16:17:14.431Z,59.6
2019-03-27T16:22:08.288Z,59.7
2019-03-27T16:27:14.516Z,59.8
2019-03-27T16:32:14.466Z,59.8
2019-03-27T16:37:16.094Z,59.8
2019-03-27T16:42:15.577Z,59.8
2019-03-27T16:47:14.470Z,59.8
2019-03-27T16:52:14.499Z,59.9
2019-03-27T16:57:18.324Z,59.8
2019-03-27T17:02:43.904Z,59.8
2019-03-27T17:07:43.798Z,59.9
2019-03-27T17:12:43.911Z,59.9
2019-03-27T17:17:43.776Z,60
2019-03-27T17:22:43.737Z,60
2019-03-27T17:27:43.777Z,60.1
2019-03-27T17:32:43.794Z,70.2
2019-03-27T17:37:43.755Z,65.4
2019-03-27T17:42:43.706Z,63.1
2019-03-27T17:47:43.738Z,62
2019-03-27T17:52:43.686Z,61.6
2019-03-27T17:57:43.705Z,61.3
2019-03-27T18:02:43.711Z,60.9
2019-03-27T18:07:43.656Z,61
2019-03-27T18:12:43.684Z,60.8
2019-03-27T18:17:43.780Z,60.6
2019-03-27T18:22:43.678Z,60
2019-03-27T18:27:43.659Z,59.9
2019-03-27T18:32:43.706Z,59.7
2019-03-27T18:37:43.633Z,59.6
2019-03-27T18:42:43.642Z,59.6
2019-03-27T18:47:43.682Z,59.4
2019-03-27T18:52:43.670Z,59.2
2019-03-27T19:19:43.528Z,58.1
2019-03-27T19:24:43.526Z,57.8
2019-03-27T19:29:45.309Z,58.4
2019-03-27T19:34:43.476Z,58
2019-03-27T19:39:43.579Z,57.9
2019-03-27T19:44:43.638Z,58
2019-03-27T19:49:43.489Z,58
2019-03-27T19:54:43.456Z,57.9
2019-03-27T19:59:43.464Z,58.1
2019-03-27T20:04:43.443Z,58.3
2019-03-27T20:09:43.433Z,58.2
2019-03-27T20:14:43.532Z,58.2
2019-03-27T20:19:43.430Z,58.1
2019-03-27T20:24:43.534Z,58
2019-03-27T20:29:46.875Z,57.7
2019-03-27T20:34:43.451Z,67.1
2019-03-27T20:39:43.520Z,63.1
2019-03-27T20:44:43.415Z,61.4
2019-03-27T20:49:43.398Z,60.6
2019-03-27T20:54:55.743Z,60
2019-03-27T20:59:43.414Z,59.7
2019-03-27T21:04:43.396Z,62
2019-03-27T21:09:43.363Z,61
2019-03-27T21:14:43.410Z,60.3
2019-03-27T21:19:43.405Z,59.9
2019-03-27T21:24:43.368Z,58.4
2019-03-27T21:29:43.383Z,56.8
2019-03-27T21:34:43.332Z,56.7
2019-03-27T21:39:43.356Z,58.1
2019-03-27T21:44:43.346Z,58.4
2019-03-27T21:49:43.374Z,58.4
2019-03-27T21:54:43.338Z,58.4
2019-03-27T21:59:43.577Z,58.3
2019-03-27T22:04:43.332Z,61.4
2019-03-27T22:09:43.355Z,59.9
2019-03-27T22:14:43.303Z,59.2
2019-03-27T22:19:43.321Z,58.9
2019-03-27T22:24:43.303Z,58.7
2019-03-27T22:29:43.268Z,58.6
2019-03-27T22:34:44.684Z,58.4
2019-03-27T22:39:43.265Z,58.4
2019-03-27T22:44:43.302Z,58.2
2019-03-27T22:49:43.253Z,58.2
2019-03-27T22:54:43.272Z,58
2019-03-27T22:59:43.221Z,57.9
2019-03-27T23:04:43.258Z,57.7
2019-03-27T23:09:43.244Z,57.6
2019-03-27T23:14:43.231Z,55.3
2019-03-27T23:19:43.238Z,54.9
2019-03-27T23:24:43.247Z,55.6
2019-03-27T23:29:43.213Z,55.2
2019-03-27T23:34:43.233Z,55
2019-03-27T23:39:43.221Z,55.4
2019-03-27T23:44:43.213Z,54.6
2019-03-27T23:49:43.182Z,55.7
2019-03-27T23:54:43.216Z,55.9
2019-03-27T23:59:43.468Z,55.8
